Edwards Crossroads, North Carolina
Current Conditions -  °F | °C
As of 9:15 AM on Thursday 27 Nov 2014 (Local Time) from KGEV Reporting Station
Light Snow Light Snow  
Wind Chill: 22°   Ceiling: 1600
Heat Index: 33°   Visibility: 3mi
Dew Point: 26°   Wind: 15mph
Humidity: 77%   Direction: 290°WNW
Pressure: 29.97"   Gusts: 25mph
Location:  36.5212°N, 81.1574°W
Report Text: KGEV 271415Z AUTO 29013G22KT 3SM -SN BKN016 BKN029 OVC042 00/M03 A2997 RMK AO2 T00031033
Loading
Personal Weather Stations






























Interactive Weather Map New forecast layout! Learn more

10-Day Weather Forecast

Advertisements
Track Severe Weather on mobile